createdAt,value
2023-01-21T00:00:25.107Z,98784.56
2023-01-21T00:05:27.488Z,98791.59
2023-01-21T00:10:29.395Z,98779.00
2023-01-21T00:15:31.428Z,98793.41
2023-01-21T00:20:33.577Z,98797.88
2023-01-21T00:25:35.375Z,98798.88
2023-01-21T00:30:37.316Z,98787.94
2023-01-21T00:35:42.207Z,98792.50
2023-01-21T00:40:44.288Z,98790.47
2023-01-21T00:45:46.073Z,98801.69
2023-01-21T00:50:47.841Z,98802.69
2023-01-21T00:55:49.660Z,98809.59
2023-01-21T01:01:00.000Z,98806.13
2023-01-21T01:06:07.758Z,98812.06
2023-01-21T01:11:10.196Z,98818.91
2023-01-21T01:16:14.642Z,98811.25
2023-01-21T01:21:19.466Z,98813.06
2023-01-21T01:26:22.327Z,98802.84
2023-01-21T01:31:24.241Z,98806.50
2023-01-21T01:36:26.221Z,98811.78
2023-01-21T01:41:30.134Z,98813.59
2023-01-21T01:46:34.997Z,98829.00
2023-01-21T01:51:59.563Z,98829.00
2023-01-21T01:57:05.529Z,98833.47
2023-01-21T02:02:11.650Z,98829.44
2023-01-21T02:07:14.169Z,98829.59
2023-01-21T02:12:18.226Z,98839.16
2023-01-21T02:18:00.143Z,98847.66
2023-01-21T02:23:10.721Z,98851.09
2023-01-21T02:28:41.950Z,98853.50
2023-01-21T02:34:08.430Z,98859.69
2023-01-21T02:39:21.982Z,98852.84
2023-01-21T02:44:39.276Z,98857.03
2023-01-21T02:50:29.122Z,98857.94
2023-01-21T02:55:35.840Z,98859.69
2023-01-21T03:01:07.894Z,98869.81
2023-01-21T03:06:49.017Z,98873.28
2023-01-21T03:12:11.758Z,98876.16
2023-01-21T03:17:33.380Z,98876.25
2023-01-21T03:22:37.780Z,98882.50
2023-01-21T03:27:43.704Z,98876.75
2023-01-21T03:32:49.762Z,98884.66
2023-01-21T03:38:10.108Z,98886.63
2023-01-21T03:43:12.013Z,98885.81
2023-01-21T03:48:37.710Z,98892.81
2023-01-21T03:53:43.265Z,98894.69
2023-01-21T03:58:45.148Z,98889.44
2023-01-21T04:03:47.039Z,98895.28
2023-01-21T04:08:49.510Z,98896.34
2023-01-21T04:13:51.367Z,98905.72
2023-01-21T04:18:54.085Z,98897.91
2023-01-21T04:23:55.845Z,98908.69
2023-01-21T04:28:57.721Z,98907.03
2023-01-21T04:33:59.538Z,98908.19
2023-01-21T04:39:01.563Z,98898.41
2023-01-21T04:44:03.422Z,98905.06
2023-01-21T04:49:05.392Z,98902.44
2023-01-21T04:54:07.189Z,98902.34
2023-01-21T04:59:09.002Z,98904.00
2023-01-21T05:04:10.805Z,98909.84
2023-01-21T05:09:12.626Z,98919.97
2023-01-21T05:14:14.447Z,98932.56
2023-01-21T05:19:16.509Z,98929.94
2023-01-21T05:24:18.858Z,98934.88
2023-01-21T05:29:20.712Z,98933.06
2023-01-21T05:34:22.526Z,98935.69
2023-01-21T05:39:24.520Z,98934.13
2023-01-21T05:44:26.390Z,98939.97
2023-01-21T05:49:28.445Z,98940.16
2023-01-21T05:54:30.524Z,98929.94
2023-01-21T05:59:32.388Z,98933.31
2023-01-21T06:04:34.232Z,98935.88
2023-01-21T06:09:36.055Z,98934.28
2023-01-21T06:14:37.820Z,98939.41
2023-01-21T06:19:39.653Z,98945.41
2023-01-21T06:24:41.724Z,98948.88
2023-01-21T06:29:44.108Z,98950.69
2023-01-21T06:34:46.760Z,98948.28
2023-01-21T06:39:48.575Z,98944.00
2023-01-21T06:44:50.298Z,98944.09
2023-01-21T06:49:52.089Z,98944.31
2023-01-21T06:54:53.932Z,98944.47
2023-01-21T06:59:55.879Z,98947.13
2023-01-21T07:04:59.161Z,98958.16
2023-01-21T07:10:01.217Z,98962.34
2023-01-21T07:15:03.111Z,98958.06
2023-01-21T07:20:06.016Z,98958.88
2023-01-21T07:25:08.767Z,98953.78
2023-01-21T07:30:21.020Z,98969.09
2023-01-21T07:35:23.000Z,98977.50
2023-01-21T07:40:24.919Z,98981.03
2023-01-21T07:45:27.039Z,98980.13
2023-01-21T07:50:28.976Z,98976.50
2023-01-21T07:55:31.304Z,98980.63
2023-01-21T08:00:33.183Z,98978.00
2023-01-21T08:05:35.087Z,98979.66
2023-01-21T08:10:36.969Z,98975.28
2023-01-21T08:15:38.791Z,98977.75
2023-01-21T08:20:40.685Z,98977.69
2023-01-21T08:25:42.470Z,98987.72
2023-01-21T08:30:44.932Z,98984.28
2023-01-21T08:35:46.818Z,98980.75
2023-01-21T08:40:48.545Z,98978.84
2023-01-21T08:45:50.535Z,98974.66
2023-01-21T08:50:52.649Z,98970.94
2023-01-21T08:56:02.192Z,98973.50
2023-01-21T09:01:09.018Z,98982.72
2023-01-21T09:06:11.400Z,98980.84
2023-01-21T09:11:13.410Z,98994.25
2023-01-21T09:16:18.367Z,98989.16
2023-01-21T09:21:20.184Z,98987.25
2023-01-21T09:26:24.089Z,98993.94
2023-01-21T09:31:27.855Z,98993.59
2023-01-21T09:36:31.982Z,99000.19
2023-01-21T09:41:40.829Z,98994.09
2023-01-21T09:46:51.433Z,98988.91
2023-01-21T09:52:03.181Z,98987.09
2023-01-21T09:57:31.939Z,98988.75
2023-01-21T10:02:50.055Z,98984.28
2023-01-21T10:08:07.379Z,98985.03
2023-01-21T10:13:56.890Z,98979.94
2023-01-21T10:19:02.174Z,98972.91
2023-01-21T10:24:14.437Z,98978.69
2023-01-21T10:29:21.596Z,98964.84
2023-01-21T10:34:23.497Z,98972.41
2023-01-21T10:39:31.519Z,98954.53
2023-01-21T10:44:48.429Z,98949.34
2023-01-21T10:50:02.309Z,98958.41
2023-01-21T10:55:42.696Z,98946.09
2023-01-21T11:00:48.772Z,98946.09
2023-01-21T11:05:50.969Z,98938.53
2023-01-21T11:10:55.424Z,98936.69
2023-01-21T11:16:00.187Z,98929.69
2023-01-21T11:21:22.005Z,98925.31
2023-01-21T11:26:28.719Z,98923.75
2023-01-21T11:31:32.334Z,98925.41
2023-01-21T11:36:34.562Z,98906.44
2023-01-21T11:41:36.621Z,98900.78
2023-01-21T11:46:41.718Z,98895.31
2023-01-21T11:51:45.826Z,98888.22
2023-01-21T11:57:18.861Z,98878.53
2023-01-21T12:02:31.374Z,98874.34
2023-01-21T12:07:37.873Z,98875.34
2023-01-21T12:13:08.294Z,98875.50
2023-01-21T12:18:33.147Z,98878.44
2023-01-21T12:24:10.141Z,98864.09
2023-01-21T12:29:30.865Z,98864.19
2023-01-21T12:34:38.812Z,98870.84
2023-01-21T12:39:42.835Z,98857.16
2023-01-21T12:44:59.880Z,98853.59
2023-01-21T12:50:16.617Z,98843.47
2023-01-21T12:55:23.877Z,98838.16
2023-01-21T13:00:40.187Z,98828.50
2023-01-21T13:05:57.026Z,98819.09
2023-01-21T13:11:20.403Z,98812.06
2023-01-21T13:16:26.510Z,98800.91
2023-01-21T13:21:42.074Z,98781.00
2023-01-21T13:27:30.765Z,98767.84
2023-01-21T13:32:47.270Z,98775.44
2023-01-21T13:38:10.547Z,98767.66
2023-01-21T13:43:44.234Z,98772.78
2023-01-21T13:49:13.251Z,98770.31
2023-01-21T13:54:26.783Z,98768.66
2023-01-21T13:59:38.757Z,98764.66
2023-01-21T14:04:49.602Z,98752.88
2023-01-21T14:10:06.926Z,98746.31
2023-01-21T14:15:14.541Z,98743.22
2023-01-21T14:20:19.429Z,98741.56
2023-01-21T14:25:42.216Z,98740.75
2023-01-21T14:30:52.209Z,98751.06
2023-01-21T14:36:03.740Z,98746.03
2023-01-21T14:41:10.710Z,98750.25
2023-01-21T14:46:27.757Z,98740.84
2023-01-21T14:51:32.001Z,98731.53
2023-01-21T14:56:35.416Z,98729.06
2023-01-21T15:01:45.086Z,98724.94
2023-01-21T15:06:49.204Z,98724.13
2023-01-21T15:11:56.629Z,98725.03
2023-01-21T15:16:58.641Z,98732.72
2023-01-21T15:22:16.338Z,98731.06
2023-01-21T15:27:25.919Z,98731.88
2023-01-21T15:32:32.991Z,98726.16
2023-01-21T15:37:39.835Z,98721.13
2023-01-21T15:42:51.348Z,98725.50
2023-01-21T15:48:40.949Z,98722.22
2023-01-21T15:53:52.184Z,98723.03
2023-01-21T15:59:21.930Z,98720.41
2023-01-21T16:04:29.618Z,98724.69
2023-01-21T16:09:43.575Z,98717.03
2023-01-21T16:15:17.832Z,98717.03
2023-01-21T16:20:20.309Z,98711.81
2023-01-21T16:25:24.530Z,98715.19
2023-01-21T16:30:29.133Z,98706.78
2023-01-21T16:35:47.311Z,98715.38
2023-01-21T16:40:49.804Z,98705.06
2023-01-21T16:45:55.425Z,98712.81
2023-01-21T16:50:58.210Z,98711.09
2023-01-21T16:56:00.206Z,98714.47
2023-01-21T17:01:18.266Z,98709.34
2023-01-21T17:06:22.790Z,98710.81
2023-01-21T17:11:24.775Z,98720.13
2023-01-21T17:16:30.527Z,98717.47
2023-01-21T17:21:51.231Z,98712.25
2023-01-21T17:27:00.706Z,98716.56
2023-01-21T17:32:25.814Z,98714.72
2023-01-21T17:37:51.341Z,98725.78
2023-01-21T17:42:54.142Z,98722.41
2023-01-21T17:48:09.483Z,98730.06
2023-01-21T17:53:28.663Z,98732.53
2023-01-21T17:58:45.977Z,98738.47
2023-01-21T18:03:47.923Z,98730.88
2023-01-21T18:08:51.037Z,98743.56
2023-01-21T18:13:52.890Z,98741.13
2023-01-21T18:18:55.158Z,98741.75
2023-01-21T18:23:56.990Z,98740.84
2023-01-21T18:28:58.939Z,98746.78
2023-01-21T18:34:00.937Z,98746.78
2023-01-21T18:39:02.791Z,98751.97
2023-01-21T18:44:04.923Z,98754.34
2023-01-21T18:49:11.583Z,98749.06
2023-01-21T18:54:15.421Z,98748.97
2023-01-21T18:59:20.209Z,98748.97
2023-01-21T19:04:22.287Z,98751.59
2023-01-21T19:09:25.207Z,98755.91
2023-01-21T19:14:26.942Z,98753.16
2023-01-21T19:19:28.872Z,98751.50
2023-01-21T19:24:31.043Z,98754.88
2023-01-21T19:29:33.265Z,98755.72
2023-01-21T19:34:35.130Z,98758.28
2023-01-21T19:39:36.928Z,98760.00
2023-01-21T19:44:41.721Z,98764.22
2023-01-21T19:49:43.808Z,98768.59
2023-01-21T19:54:45.715Z,98781.38
2023-01-21T19:59:49.616Z,98792.69
2023-01-21T20:04:51.439Z,98792.59
2023-01-21T20:09:53.310Z,98798.53
2023-01-21T20:14:55.255Z,98804.56
2023-01-21T20:19:57.136Z,98809.88
2023-01-21T20:24:59.039Z,98813.06
2023-01-21T20:30:15.744Z,98824.66
2023-01-21T20:35:20.686Z,98824.66
2023-01-21T20:40:25.581Z,98833.25
2023-01-21T20:45:34.465Z,98836.53
2023-01-21T20:50:36.345Z,98832.25
2023-01-21T20:55:38.669Z,98840.53
2023-01-21T21:00:41.179Z,98844.84
2023-01-21T21:05:43.228Z,98848.41
2023-01-21T21:10:46.005Z,98854.44
2023-01-21T21:15:49.648Z,98858.81
2023-01-21T21:20:52.113Z,98863.75
2023-01-21T21:25:55.443Z,98869.69
2023-01-21T21:30:57.382Z,98868.69
2023-01-21T21:35:59.146Z,98870.31
2023-01-21T21:41:21.012Z,98871.22
2023-01-21T21:46:41.332Z,98883.19
2023-01-21T21:51:45.823Z,98876.34
2023-01-21T21:56:48.243Z,98883.09
2023-01-21T22:01:50.066Z,98884.03
2023-01-21T22:06:51.915Z,98883.09
2023-01-21T22:11:53.875Z,98882.19
2023-01-21T22:16:55.731Z,98881.38
2023-01-21T22:21:57.534Z,98900.19
2023-01-21T22:26:59.350Z,98889.13
2023-01-21T22:32:03.905Z,98893.44
2023-01-21T22:37:05.770Z,98900.28
2023-01-21T22:42:07.612Z,98908.69
2023-01-21T22:47:09.508Z,98913.78
2023-01-21T22:52:11.372Z,98918.09
2023-01-21T22:57:13.406Z,98908.78
2023-01-21T23:02:15.300Z,98910.50
2023-01-21T23:07:17.479Z,98924.94
2023-01-21T23:12:19.233Z,98917.25
2023-01-21T23:17:21.036Z,98917.25
2023-01-21T23:22:22.805Z,98926.59
2023-01-21T23:27:24.643Z,98930.06
2023-01-21T23:32:26.441Z,98928.31
2023-01-21T23:37:28.385Z,98923.13
2023-01-21T23:42:32.113Z,98932.69
2023-01-21T23:47:34.099Z,98925.84
2023-01-21T23:52:40.263Z,98936.00
2023-01-21T23:57:42.256Z,98936.06
